Time,TemperatureF,DewpointF,PressureIn,WindDirection,WindDirectionDegrees,WindSpeedMPH,WindSpeedGustMPH,Humidity,HourlyPrecipIn,Conditions,Clouds,dailyrainin,SoftwareType,DateUTC
2013-01-15 00:04:00,45.0,-99.9,30.19,NNE,20,16.0,25.0,-999,-99.99,,,-99.99,,2013-01-15 05:04:00,
2013-01-15 00:12:00,45.0,-99.9,30.19,NNE,20,16.0,25.0,-999,-99.99,,,-99.99,,2013-01-15 05:12:00,
2013-01-15 00:23:00,45.0,-99.9,30.20,NNE,30,18.0,29.0,-999,-99.99,,,-99.99,,2013-01-15 05:23:00,
2013-01-15 00:33:00,45.0,-99.9,30.20,NNE,20,18.0,25.0,-999,-99.99,,,-99.99,,2013-01-15 05:33:00,
2013-01-15 00:43:00,45.0,-99.9,30.20,NNE,30,16.0,22.0,-999,-99.99,,,-99.99,,2013-01-15 05:43:00,
2013-01-15 00:53:00,45.0,-99.9,30.20,NNE,30,16.0,29.0,-999,-99.99,,,-99.99,,2013-01-15 05:53:00,
2013-01-15 01:03:00,45.0,-99.9,30.19,NE,40,13.0,20.0,-999,-99.99,,,-99.99,,2013-01-15 06:03:00,
2013-01-15 01:12:00,45.0,-99.9,30.20,NNE,30,16.0,22.0,-999,-99.99,,,-99.99,,2013-01-15 06:12:00,
2013-01-15 01:22:00,45.0,-99.9,30.20,NE,40,13.0,20.0,-999,-99.99,,,-99.99,,2013-01-15 06:22:00,
2013-01-15 01:33:00,45.0,-99.9,30.20,NNE,30,11.0,20.0,-999,-99.99,,,-99.99,,2013-01-15 06:33:00,
2013-01-15 01:43:00,45.0,-99.9,30.20,NNE,30,13.0,25.0,-999,-99.99,,,-99.99,,2013-01-15 06:43:00,
2013-01-15 01:53:00,45.0,-99.9,30.20,NE,40,16.0,22.0,-999,-99.99,,,-99.99,,2013-01-15 06:53:00,
2013-01-15 02:02:00,45.0,-99.9,30.20,NNE,30,16.0,25.0,-999,-99.99,,,-99.99,,2013-01-15 07:02:00,
2013-01-15 02:12:00,45.0,-99.9,30.21,NNE,30,16.0,25.0,-999,-99.99,,,-99.99,,2013-01-15 07:12:00,
2013-01-15 02:22:00,44.0,-99.9,30.22,NNE,30,18.0,25.0,-999,-99.99,,,-99.99,,2013-01-15 07:22:00,
2013-01-15 02:33:00,44.0,-99.9,30.21,NNE,30,13.0,22.0,-999,-99.99,,,-99.99,,2013-01-15 07:33:00,
2013-01-15 02:43:00,44.0,-99.9,30.22,NNE,20,16.0,25.0,-999,-99.99,,,-99.99,,2013-01-15 07:43:00,
2013-01-15 02:53:00,44.0,-99.9,30.22,NNE,30,18.0,27.0,-999,-99.99,,,-99.99,,2013-01-15 07:53:00,
2013-01-15 03:02:00,44.0,-99.9,30.22,NNE,30,18.0,25.0,-999,-99.99,,,-99.99,,2013-01-15 08:02:00,
2013-01-15 03:12:00,44.0,-99.9,30.22,NNE,20,18.0,25.0,-999,-99.99,,,-99.99,,2013-01-15 08:12:00,
2013-01-15 03:22:00,44.0,-99.9,30.22,NNE,20,16.0,27.0,-999,-99.99,,,-99.99,,2013-01-15 08:22:00,
2013-01-15 03:33:00,43.0,-99.9,30.22,NNE,20,16.0,22.0,-999,-99.99,,,-99.99,,2013-01-15 08:33:00,
2013-01-15 03:43:00,43.0,-99.9,30.22,NNE,30,13.0,20.0,-999,-99.99,,,-99.99,,2013-01-15 08:43:00,
2013-01-15 03:53:00,43.0,-99.9,30.22,NNE,30,16.0,22.0,-999,-99.99,,,-99.99,,2013-01-15 08:53:00,
2013-01-15 04:02:00,43.0,-99.9,30.21,NNE,30,13.0,20.0,-999,-99.99,,,-99.99,,2013-01-15 09:02:00,
2013-01-15 04:12:00,43.0,-99.9,30.20,NE,40,11.0,18.0,-999,-99.99,,,-99.99,,2013-01-15 09:12:00,
2013-01-15 04:22:00,43.0,-99.9,30.19,NE,50,13.0,20.0,-999,-99.99,,,-99.99,,2013-01-15 09:22:00,
2013-01-15 04:33:00,43.0,-99.9,30.19,NE,50,11.0,18.0,-999,-99.99,,,-99.99,,2013-01-15 09:33:00,
2013-01-15 04:43:00,43.0,-99.9,30.20,NE,40,9.0,16.0,-999,-99.99,,,-99.99,,2013-01-15 09:43:00,
2013-01-15 04:53:00,44.0,-99.9,30.20,NNE,30,9.0,16.0,-999,-99.99,,,-99.99,,2013-01-15 09:53:00,
2013-01-15 05:02:00,44.0,-99.9,30.19,NE,40,9.0,16.0,-999,-99.99,,,-99.99,,2013-01-15 10:02:00,
2013-01-15 05:12:00,44.0,-99.9,30.19,NE,50,7.0,11.0,-999,-99.99,,,-99.99,,2013-01-15 10:12:00,
2013-01-15 05:22:00,44.0,-99.9,30.18,NE,50,9.0,11.0,-999,-99.99,,,-99.99,,2013-01-15 10:22:00,
2013-01-15 05:33:00,44.0,-99.9,30.17,ENE,60,9.0,13.0,-999,-99.99,,,-99.99,,2013-01-15 10:33:00,
2013-01-15 05:42:00,44.0,-99.9,30.17,ENE,70,7.0,11.0,-999,-99.99,,,-99.99,,2013-01-15 10:42:00,
2013-01-15 05:52:00,45.0,-99.9,30.18,East,90,7.0,13.0,-999,-99.99,,,-99.99,,2013-01-15 10:52:00,
2013-01-15 06:03:00,45.0,-99.9,30.17,East,100,7.0,11.0,-999,-99.99,,,-99.99,,2013-01-15 11:03:00,
2013-01-15 06:12:00,45.0,-99.9,30.16,East,100,7.0,16.0,-999,-99.99,,,-99.99,,2013-01-15 11:12:00,
2013-01-15 06:23:00,45.0,-99.9,30.17,East,80,9.0,16.0,-999,-99.99,,,-99.99,,2013-01-15 11:23:00,
2013-01-15 06:33:00,45.0,-99.9,30.18,ENE,70,7.0,11.0,-999,-99.99,,,-99.99,,2013-01-15 11:33:00,
2013-01-15 06:43:00,45.0,-99.9,30.18,ENE,60,7.0,11.0,-999,-99.99,,,-99.99,,2013-01-15 11:43:00,
2013-01-15 06:53:00,45.0,-99.9,30.18,ENE,60,7.0,11.0,-999,-99.99,,,-99.99,,2013-01-15 11:53:00,
2013-01-15 07:03:00,45.0,-99.9,30.18,NE,50,7.0,11.0,-999,-99.99,,,-99.99,,2013-01-15 12:03:00,
2013-01-15 07:12:00,45.0,-99.9,30.18,ENE,60,9.0,13.0,-999,-99.99,,,-99.99,,2013-01-15 12:12:00,
2013-01-15 07:23:00,45.0,-99.9,30.17,ENE,70,9.0,13.0,-999,-99.99,,,-99.99,,2013-01-15 12:23:00,
2013-01-15 07:33:00,45.0,-99.9,30.18,East,80,7.0,11.0,-999,-99.99,,,-99.99,,2013-01-15 12:33:00,
2013-01-15 07:43:00,45.0,-99.9,30.18,East,90,7.0,9.0,-999,-99.99,,,-99.99,,2013-01-15 12:43:00,
2013-01-15 07:53:00,46.0,-99.9,30.18,East,100,4.0,11.0,-999,-99.99,,,-99.99,,2013-01-15 12:53:00,
2013-01-15 08:03:00,46.0,-99.9,30.18,ESE,110,7.0,11.0,-999,-99.99,,,-99.99,,2013-01-15 13:03:00,
2013-01-15 08:13:00,46.0,-99.9,30.18,ESE,110,7.0,13.0,-999,-99.99,,,-99.99,,2013-01-15 13:13:00,
2013-01-15 08:23:00,46.0,-99.9,30.18,East,100,4.0,9.0,-999,-99.99,,,-99.99,,2013-01-15 13:23:00,
2013-01-15 08:33:00,46.0,-99.9,30.19,ENE,70,7.0,9.0,-999,-99.99,,,-99.99,,2013-01-15 13:33:00,
2013-01-15 08:43:00,46.0,-99.9,30.20,ENE,70,4.0,7.0,-999,-99.99,,,-99.99,,2013-01-15 13:43:00,
2013-01-15 08:53:00,47.0,-99.9,30.19,East,90,4.0,7.0,-999,-99.99,,,-99.99,,2013-01-15 13:53:00,
2013-01-15 09:03:00,47.0,-99.9,30.20,East,90,4.0,9.0,-999,-99.99,,,-99.99,,2013-01-15 14:03:00,
2013-01-15 09:13:00,47.0,-99.9,30.20,ESE,110,4.0,9.0,-999,-99.99,,,-99.99,,2013-01-15 14:13:00,
2013-01-15 09:23:00,47.0,-99.9,30.19,ESE,120,4.0,9.0,-999,-99.99,,,-99.99,,2013-01-15 14:23:00,
2013-01-15 09:33:00,47.0,-99.9,30.20,NE,40,4.0,9.0,-999,-99.99,,,-99.99,,2013-01-15 14:33:00,
2013-01-15 09:43:00,47.0,-99.9,30.20,NE,50,4.0,7.0,-999,-99.99,,,-99.99,,2013-01-15 14:43:00,
2013-01-15 09:54:00,47.0,-99.9,30.20,NE,40,7.0,9.0,-999,-99.99,,,-99.99,,2013-01-15 14:54:00,
2013-01-15 10:03:00,47.0,-99.9,30.21,NE,50,9.0,13.0,-999,-99.99,,,-99.99,,2013-01-15 15:03:00,
2013-01-15 10:13:00,47.0,-99.9,30.22,NNE,30,11.0,16.0,-999,-99.99,,,-99.99,,2013-01-15 15:13:00,
2013-01-15 10:23:00,46.0,-99.9,30.23,NNE,30,16.0,20.0,-999,-99.99,,,-99.99,,2013-01-15 15:23:00,
2013-01-15 10:33:00,45.0,-99.9,30.23,NE,40,11.0,18.0,-999,-99.99,,,-99.99,,2013-01-15 15:33:00,
2013-01-15 10:43:00,45.0,-99.9,30.24,NNE,30,13.0,18.0,-999,-99.99,,,-99.99,,2013-01-15 15:43:00,
2013-01-15 10:53:00,45.0,-99.9,30.23,NNE,30,11.0,18.0,-999,-99.99,,,-99.99,,2013-01-15 15:53:00,
2013-01-15 11:03:00,44.0,-99.9,30.23,NNE,30,13.0,18.0,-999,-99.99,,,-99.99,,2013-01-15 16:03:00,
2013-01-15 11:12:00,44.0,-99.9,30.23,NNE,30,13.0,18.0,-999,-99.99,,,-99.99,,2013-01-15 16:12:00,
2013-01-15 11:23:00,44.0,-99.9,30.23,NNE,30,11.0,18.0,-999,-99.99,,,-99.99,,2013-01-15 16:23:00,
2013-01-15 11:34:00,44.0,-99.9,30.23,NNE,30,11.0,20.0,-999,-99.99,,,-99.99,,2013-01-15 16:34:00,
2013-01-15 11:43:00,44.0,-99.9,30.23,NNE,30,11.0,16.0,-999,-99.99,,,-99.99,,2013-01-15 16:43:00,
2013-01-15 11:53:00,44.0,-99.9,30.24,NNE,20,13.0,18.0,-999,-99.99,,,-99.99,,2013-01-15 16:53:00,
2013-01-15 12:04:00,44.0,-99.9,30.24,NNE,20,16.0,20.0,-999,-99.99,,,-99.99,,2013-01-15 17:04:00,
2013-01-15 12:13:00,44.0,-99.9,30.23,NNE,20,16.0,20.0,-999,-99.99,,,-99.99,,2013-01-15 17:13:00,
2013-01-15 12:23:00,44.0,-99.9,30.22,NNE,30,13.0,20.0,-999,-99.99,,,-99.99,,2013-01-15 17:23:00,
2013-01-15 12:33:00,44.0,-99.9,30.22,NE,40,11.0,16.0,-999,-99.99,,,-99.99,,2013-01-15 17:33:00,
2013-01-15 12:43:00,44.0,-99.9,30.22,NE,40,11.0,16.0,-999,-99.99,,,-99.99,,2013-01-15 17:43:00,
2013-01-15 12:53:00,44.0,-99.9,30.22,NE,40,9.0,13.0,-999,-99.99,,,-99.99,,2013-01-15 17:53:00,
2013-01-15 13:03:00,44.0,-99.9,30.21,NE,40,11.0,16.0,-999,-99.99,,,-99.99,,2013-01-15 18:03:00,
2013-01-15 13:13:00,44.0,-99.9,30.21,NNE,30,9.0,13.0,-999,-99.99,,,-99.99,,2013-01-15 18:13:00,
2013-01-15 13:24:00,44.0,-99.9,30.21,NE,40,11.0,18.0,-999,-99.99,,,-99.99,,2013-01-15 18:24:00,
2013-01-15 13:34:00,44.0,-99.9,30.21,NE,40,11.0,18.0,-999,-99.99,,,-99.99,,2013-01-15 18:34:00,
2013-01-15 13:43:00,44.0,-99.9,30.21,NNE,30,11.0,16.0,-999,-99.99,,,-99.99,,2013-01-15 18:43:00,
2013-01-15 13:54:00,44.0,-99.9,30.21,NE,40,9.0,13.0,-999,-99.99,,,-99.99,,2013-01-15 18:54:00,
2013-01-15 14:04:00,44.0,-99.9,30.21,NNE,30,9.0,16.0,-999,-99.99,,,-99.99,,2013-01-15 19:04:00,
2013-01-15 14:13:00,44.0,-99.9,30.20,NE,50,9.0,13.0,-999,-99.99,,,-99.99,,2013-01-15 19:13:00,
2013-01-15 14:23:00,44.0,-99.9,30.19,ENE,60,9.0,16.0,-999,-99.99,,,-99.99,,2013-01-15 19:23:00,
2013-01-15 14:33:00,44.0,-99.9,30.19,ENE,60,7.0,9.0,-999,-99.99,,,-99.99,,2013-01-15 19:33:00,
2013-01-15 14:43:00,44.0,-99.9,30.19,ENE,60,7.0,11.0,-999,-99.99,,,-99.99,,2013-01-15 19:43:00,
2013-01-15 14:53:00,44.0,-99.9,30.18,ENE,70,9.0,13.0,-999,-99.99,,,-99.99,,2013-01-15 19:53:00,
2013-01-15 15:04:00,44.0,-99.9,30.18,ENE,70,9.0,18.0,-999,-99.99,,,-99.99,,2013-01-15 20:04:00,
2013-01-15 15:12:00,44.0,-99.9,30.18,ENE,60,11.0,18.0,-999,-99.99,,,-99.99,,2013-01-15 20:12:00,
2013-01-15 15:23:00,44.0,-99.9,30.18,East,80,9.0,18.0,-999,-99.99,,,-99.99,,2013-01-15 20:23:00,
2013-01-15 15:33:00,45.0,-99.9,30.18,East,90,9.0,16.0,-999,-99.99,,,-99.99,,2013-01-15 20:33:00,
2013-01-15 15:44:00,44.0,-99.9,30.18,East,80,9.0,13.0,-999,-99.99,,,-99.99,,2013-01-15 20:44:00,
2013-01-15 15:53:00,44.0,-99.9,30.19,ENE,70,7.0,11.0,-999,-99.99,,,-99.99,,2013-01-15 20:53:00,
2013-01-15 16:03:00,45.0,-99.9,30.19,ENE,70,9.0,13.0,-999,-99.99,,,-99.99,,2013-01-15 21:03:00,
2013-01-15 16:13:00,45.0,-99.9,30.19,ENE,70,9.0,13.0,-999,-99.99,,,-99.99,,2013-01-15 21:13:00,
2013-01-15 16:23:00,45.0,-99.9,30.19,ENE,70,9.0,13.0,-999,-99.99,,,-99.99,,2013-01-15 21:23:00,
2013-01-15 16:34:00,45.0,-99.9,30.19,ENE,70,9.0,13.0,-999,-99.99,,,-99.99,,2013-01-15 21:34:00,
2013-01-15 16:43:00,45.0,-99.9,30.19,ENE,70,9.0,16.0,-999,-99.99,,,-99.99,,2013-01-15 21:43:00,
2013-01-15 16:53:00,45.0,-99.9,30.18,ENE,70,9.0,16.0,-999,-99.99,,,-99.99,,2013-01-15 21:53:00,
2013-01-15 17:03:00,45.0,-99.9,30.18,ENE,70,11.0,16.0,-999,-99.99,,,-99.99,,2013-01-15 22:03:00,
2013-01-15 17:13:00,45.0,-99.9,30.18,East,90,7.0,11.0,-999,-99.99,,,-99.99,,2013-01-15 22:13:00,
2013-01-15 17:23:00,45.0,-99.9,30.19,East,90,9.0,18.0,-999,-99.99,,,-99.99,,2013-01-15 22:23:00,
2013-01-15 17:33:00,45.0,-99.9,30.19,ENE,70,9.0,16.0,-999,-99.99,,,-99.99,,2013-01-15 22:33:00,
2013-01-15 17:43:00,45.0,-99.9,30.18,East,80,7.0,11.0,-999,-99.99,,,-99.99,,2013-01-15 22:43:00,
2013-01-15 17:53:00,45.0,-99.9,30.19,ENE,70,7.0,11.0,-999,-99.99,,,-99.99,,2013-01-15 22:53:00,
2013-01-15 18:03:00,45.0,-99.9,30.19,ENE,70,7.0,11.0,-999,-99.99,,,-99.99,,2013-01-15 23:03:00,
2013-01-15 18:13:00,45.0,-99.9,30.19,ENE,70,9.0,13.0,-999,-99.99,,,-99.99,,2013-01-15 23:13:00,
2013-01-15 18:23:00,44.0,-99.9,30.19,ENE,60,9.0,13.0,-999,-99.99,,,-99.99,,2013-01-15 23:23:00,
2013-01-15 18:33:00,45.0,-99.9,30.19,ENE,70,7.0,11.0,-999,-99.99,,,-99.99,,2013-01-15 23:33:00,
2013-01-15 18:43:00,45.0,-99.9,30.18,ENE,70,7.0,11.0,-999,-99.99,,,-99.99,,2013-01-15 23:43:00,
2013-01-15 18:53:00,45.0,-99.9,30.19,ENE,60,7.0,11.0,-999,-99.99,,,-99.99,,2013-01-15 23:53:00,
2013-01-15 19:03:00,45.0,-99.9,30.19,ENE,70,7.0,11.0,-999,-99.99,,,-99.99,,2013-01-16 00:03:00,
2013-01-15 19:13:00,45.0,-99.9,30.19,East,80,7.0,9.0,-999,-99.99,,,-99.99,,2013-01-16 00:13:00,
2013-01-15 19:23:00,45.0,-99.9,30.18,East,90,7.0,9.0,-999,-99.99,,,-99.99,,2013-01-16 00:23:00,
2013-01-15 19:33:00,45.0,-99.9,30.18,ENE,70,7.0,11.0,-999,-99.99,,,-99.99,,2013-01-16 00:33:00,
2013-01-15 19:43:00,45.0,-99.9,30.19,NE,50,7.0,11.0,-999,-99.99,,,-99.99,,2013-01-16 00:43:00,
2013-01-15 19:53:00,45.0,-99.9,30.19,NE,50,7.0,11.0,-999,-99.99,,,-99.99,,2013-01-16 00:53:00,
2013-01-15 20:03:00,45.0,-99.9,30.17,ENE,60,7.0,11.0,-999,-99.99,,,-99.99,,2013-01-16 01:03:00,
2013-01-15 20:12:00,45.0,-99.9,30.17,ENE,70,7.0,11.0,-999,-99.99,,,-99.99,,2013-01-16 01:12:00,
2013-01-15 20:23:00,45.0,-99.9,30.17,ENE,60,4.0,9.0,-999,-99.99,,,-99.99,,2013-01-16 01:23:00,
2013-01-15 20:33:00,45.0,-99.9,30.16,East,80,4.0,11.0,-999,-99.99,,,-99.99,,2013-01-16 01:33:00,
2013-01-15 20:43:00,45.0,-99.9,30.16,ENE,70,4.0,9.0,-999,-99.99,,,-99.99,,2013-01-16 01:43:00,
2013-01-15 20:53:00,45.0,-99.9,30.16,ENE,70,4.0,9.0,-999,-99.99,,,-99.99,,2013-01-16 01:53:00,
2013-01-15 21:03:00,45.0,-99.9,30.15,ENE,60,4.0,9.0,-999,-99.99,,,-99.99,,2013-01-16 02:03:00,
2013-01-15 21:12:00,45.0,-99.9,30.15,East,80,4.0,9.0,-999,-99.99,,,-99.99,,2013-01-16 02:12:00,
2013-01-15 21:23:00,45.0,-99.9,30.14,East,80,4.0,9.0,-999,-99.99,,,-99.99,,2013-01-16 02:23:00,
2013-01-15 21:33:00,45.0,-99.9,30.14,ENE,70,7.0,11.0,-999,-99.99,,,-99.99,,2013-01-16 02:33:00,
2013-01-15 21:43:00,45.0,-99.9,30.13,ENE,70,7.0,11.0,-999,-99.99,,,-99.99,,2013-01-16 02:43:00,
2013-01-15 21:53:00,45.0,-99.9,30.12,ENE,70,7.0,13.0,-999,-99.99,,,-99.99,,2013-01-16 02:53:00,
2013-01-15 22:03:00,45.0,-99.9,30.12,ENE,60,7.0,11.0,-999,-99.99,,,-99.99,,2013-01-16 03:03:00,
2013-01-15 22:12:00,45.0,-99.9,30.13,ENE,60,4.0,9.0,-999,-99.99,,,-99.99,,2013-01-16 03:12:00,
2013-01-15 22:23:00,45.0,-99.9,30.13,ENE,60,4.0,7.0,-999,-99.99,,,-99.99,,2013-01-16 03:23:00,
2013-01-15 22:33:00,45.0,-99.9,30.12,ENE,60,4.0,7.0,-999,-99.99,,,-99.99,,2013-01-16 03:33:00,
2013-01-15 22:43:00,45.0,-99.9,30.12,NE,50,4.0,7.0,-999,-99.99,,,-99.99,,2013-01-16 03:43:00,
2013-01-15 22:53:00,45.0,-99.9,30.11,NE,50,4.0,9.0,-999,-99.99,,,-99.99,,2013-01-16 03:53:00,
2013-01-15 23:02:00,45.0,-99.9,30.10,ENE,60,7.0,11.0,-999,-99.99,,,-99.99,,2013-01-16 04:02:00,
2013-01-15 23:12:00,45.0,-99.9,30.10,ENE,60,4.0,9.0,-999,-99.99,,,-99.99,,2013-01-16 04:12:00,
2013-01-15 23:22:00,45.0,-99.9,30.09,ENE,60,4.0,9.0,-999,-99.99,,,-99.99,,2013-01-16 04:22:00,
2013-01-15 23:33:00,45.0,-99.9,30.09,NE,50,7.0,11.0,-999,-99.99,,,-99.99,,2013-01-16 04:33:00,
2013-01-15 23:42:00,45.0,-99.9,30.09,NE,50,7.0,9.0,-999,-99.99,,,-99.99,,2013-01-16 04:42:00,
2013-01-15 23:53:00,45.0,-99.9,30.08,ENE,60,7.0,11.0,-999,-99.99,,,-99.99,,2013-01-16 04:53:00,